Time;durP1;ratioP1;P1;durP2;ratioP2;P2;SDS_P1;SDS_P2;PMS_P1;PMS_P2;Temp;Humidity;BMP_temperature;BMP_pressure;BME280_temperature;BME280_humidity;BME280_pressure;Samples;Min_cycle;Max_cycle;Signal;HPM_P1;HPM_P2
2022/05/09 06:11:07;;;;;;;78.70;27.73;;;13.20;99.90;;;;;;5080251;28;20538;-69
2022/05/09 06:13:34;;;;;;;66.85;28.35;;;13.20;99.90;;;;;;5090026;28;20306;-70
2022/05/09 06:15:59;;;;;;;126.80;51.72;;;13.40;99.90;;;;;;5089674;28;20189;-69
2022/05/09 06:18:25;;;;;;;30.45;11.27;;;13.50;99.90;;;;;;5089490;28;20180;-69
2022/05/09 06:20:51;;;;;;;24.17;9.52;;;13.70;99.90;;;;;;5090647;28;20180;-69
2022/05/09 06:23:17;;;;;;;23.30;10.43;;;13.80;98.70;;;;;;5090882;28;20165;-69
2022/05/09 06:25:46;;;;;;;17.27;4.38;;;14.00;98.50;;;;;;5090534;28;20212;-69
2022/05/09 06:28:14;;;;;;;7.53;4.07;;;14.10;97.60;;;;;;5090998;28;20204;-69
2022/05/09 06:30:42;;;;;;;8.70;3.35;;;14.20;96.60;;;;;;5090170;28;20249;-69
2022/05/09 06:33:08;;;;;;;17.48;4.65;;;14.30;95.30;;;;;;5089011;28;20181;-69
2022/05/09 06:35:41;;;;;;;9.13;2.85;;;14.40;95.20;;;;;;5070327;28;20189;-69
2022/05/09 06:38:07;;;;;;;11.70;3.90;;;14.40;94.10;;;;;;5069455;28;20296;-69
2022/05/09 06:40:35;;;;;;;9.50;3.10;;;14.50;94.00;;;;;;5068686;28;20288;-69
2022/05/09 06:43:03;;;;;;;4.13;2.42;;;14.60;93.40;;;;;;5070078;28;20235;-69
2022/05/09 06:45:30;;;;;;;3.30;2.60;;;14.80;92.20;;;;;;5069027;28;20209;-69
2022/05/09 06:47:57;;;;;;;6.47;2.47;;;14.90;91.30;;;;;;5068612;28;20553;-69
2022/05/09 06:50:28;;;;;;;5.15;2.42;;;15.00;90.90;;;;;;5068638;28;20202;-69
2022/05/09 06:52:53;;;;;;;11.02;2.80;;;15.10;90.70;;;;;;5069914;28;20166;-69
2022/05/09 06:55:19;;;;;;;6.35;2.75;;;15.20;90.10;;;;;;5069344;28;20201;-69
2022/05/09 06:57:45;;;;;;;10.93;3.13;;;15.40;88.70;;;;;;5069944;28;20219;-69
2022/05/09 07:00:18;;;;;;;8.05;2.78;;;15.60;87.90;;;;;;5069636;28;20590;-69
2022/05/09 07:02:44;;;;;;;7.05;2.60;;;15.70;87.30;;;;;;5068493;28;20265;-69
2022/05/09 07:05:12;;;;;;;7.70;2.67;;;15.80;87.40;;;;;;5068507;28;20185;-69
2022/05/09 07:07:39;;;;;;;5.88;2.45;;;15.90;86.90;;;;;;5069692;28;20170;-69
2022/05/09 07:10:05;;;;;;;15.60;2.70;;;16.10;85.60;;;;;;5069745;28;20211;-69
2022/05/09 07:12:31;;;;;;;5.65;3.05;;;16.10;82.80;;;;;;5068167;28;20181;-70
2022/05/09 07:14:57;;;;;;;4.93;2.92;;;16.20;81.30;;;;;;5068025;28;20181;-70
2022/05/09 07:17:22;;;;;;;4.97;3.10;;;16.40;81.40;;;;;;5068477;28;20213;-70
2022/05/09 07:19:48;;;;;;;10.25;2.67;;;16.50;80.80;;;;;;5068003;28;20194;-69
2022/05/09 07:22:14;;;;;;;7.95;2.95;;;16.50;78.80;;;;;;5056304;28;20190;-69
2022/05/09 07:24:40;;;;;;;13.00;3.58;;;16.60;80.10;;;;;;5054665;28;20637;-69
2022/05/09 07:27:07;;;;;;;10.38;2.90;;;16.70;78.90;;;;;;5055127;28;20281;-69
2022/05/09 07:29:34;;;;;;;8.45;2.72;;;16.90;79.20;;;;;;5054576;28;20209;-69
2022/05/09 07:32:00;;;;;;;12.48;3.00;;;17.00;76.70;;;;;;5054728;28;20180;-69
2022/05/09 07:34:25;;;;;;;8.63;2.65;;;16.90;76.50;;;;;;5054529;28;20182;-69
2022/05/09 07:36:51;;;;;;;11.10;3.47;;;17.00;76.90;;;;;;5054602;28;20194;-69
2022/05/09 07:39:16;;;;;;;6.95;3.03;;;17.20;78.00;;;;;;5054731;28;20202;-69
2022/05/09 07:41:42;;;;;;;8.50;2.72;;;17.40;77.90;;;;;;5054632;28;20182;-69
2022/05/09 07:44:08;;;;;;;8.43;2.92;;;17.50;77.90;;;;;;5055245;28;20285;-69
2022/05/09 07:46:34;;;;;;;6.15;2.88;;;17.60;76.70;;;;;;5054791;28;20194;-69
2022/05/09 07:49:00;;;;;;;7.43;2.70;;;17.60;76.60;;;;;;5054189;28;20236;-70
2022/05/09 07:51:26;;;;;;;6.28;2.50;;;17.70;76.40;;;;;;5054395;28;20170;-69
2022/05/09 07:53:52;;;;;;;5.85;2.85;;;17.70;74.70;;;;;;5055922;28;20170;-70
2022/05/09 07:56:17;;;;;;;11.27;2.80;;;17.70;75.60;;;;;;5054104;28;20201;-70
2022/05/09 07:58:43;;;;;;;9.07;3.53;;;17.70;76.80;;;;;;5054469;28;20205;-70
2022/05/09 08:01:09;;;;;;;9.23;3.63;;;17.80;76.00;;;;;;5054448;28;20240;-69
2022/05/09 08:03:37;;;;;;;8.52;2.53;;;17.90;75.20;;;;;;5053979;28;20178;-70
2022/05/09 08:06:04;;;;;;;7.30;3.17;;;18.00;74.50;;;;;;5054246;28;20193;-70
2022/05/09 08:08:32;;;;;;;5.78;2.88;;;18.20;74.70;;;;;;5055298;28;20169;-69
2022/05/09 08:10:59;;;;;;;9.13;3.33;;;18.40;72.80;;;;;;5054233;28;20198;-69
2022/05/09 08:13:28;;;;;;;4.60;2.67;;;18.50;69.80;;;;;;5054322;28;20182;-69
2022/05/09 08:15:54;;;;;;;3.10;2.55;;;18.70;70.80;;;;;;5054000;28;20209;-70
2022/05/09 08:18:21;;;;;;;5.35;3.00;;;18.80;70.80;;;;;;5053879;28;20178;-70
2022/05/09 08:20:48;;;;;;;5.57;2.80;;;19.00;70.30;;;;;;5054066;28;20206;-70
2022/05/09 08:23:18;;;;;;;5.68;2.50;;;19.10;67.70;;;;;;5053651;28;20166;-69
2022/05/09 08:25:47;;;;;;;4.38;2.78;;;19.10;67.60;;;;;;5053443;28;20281;-69
2022/05/09 08:28:14;;;;;;;4.55;2.53;;;19.10;68.90;;;;;;5053704;28;20170;-69
2022/05/09 08:30:40;;;;;;;5.78;2.80;;;19.20;68.00;;;;;;5053804;28;20545;-69
2022/05/09 08:33:15;;;;;;;7.88;3.30;;;19.30;69.80;;;;;;5052829;28;20253;-69
2022/05/09 08:35:42;;;;;;;3.88;2.50;;;19.40;69.80;;;;;;5053310;28;20271;-69
2022/05/09 08:38:08;;;;;;;4.10;2.67;;;19.50;68.80;;;;;;5053923;28;20179;-69
2022/05/09 08:40:43;;;;;;;8.32;3.15;;;19.70;70.30;;;;;;5053084;28;20209;-69
2022/05/09 08:43:29;;;;;;;14.27;3.60;;;19.70;67.70;;;;;;5053363;28;20641;-69
2022/05/09 08:46:38;;;;;;;7.88;3.05;;;19.70;67.40;;;;;;5053152;28;20249;-69
2022/05/09 08:49:31;;;;;;;9.27;3.25;;;19.80;66.30;;;;;;5052478;28;20276;-69
2022/05/09 08:51:56;;;;;;;4.93;2.88;;;19.90;67.20;;;;;;5053210;28;20177;-69
2022/05/09 08:54:22;;;;;;;7.93;2.67;;;20.00;67.70;;;;;;5053173;28;20590;-70
2022/05/09 08:56:55;;;;;;;5.45;2.63;;;19.90;64.90;;;;;;5053247;28;20202;-70
2022/05/09 08:59:38;;;;;;;6.20;2.45;;;20.00;66.90;;;;;;5053417;28;20198;-70
2022/05/09 09:02:21;;;;;;;6.18;2.90;;;20.10;67.50;;;;;;5033382;28;20221;-70
2022/05/09 09:04:58;;;;;;;9.85;3.33;;;20.20;67.70;;;;;;5036474;28;20197;-70
2022/05/09 09:07:34;;;;;;;6.63;2.95;;;20.30;66.10;;;;;;5053648;28;20162;-70
2022/05/09 09:10:22;;;;;;;10.30;4.78;;;20.30;65.90;;;;;;5052641;28;20743;-70
2022/05/09 09:13:40;;;;;;;12.00;4.97;;;20.40;66.50;;;;;;5052288;28;20637;-70
2022/05/09 09:16:47;;;;;;;5.70;3.10;;;20.50;66.90;;;;;;5043792;28;20214;-70
2022/05/09 09:19:36;;;;;;;10.32;5.43;;;20.60;65.00;;;;;;5015413;28;20213;-70
2022/05/09 09:22:16;;;;;;;26.42;5.97;;;20.70;65.70;;;;;;5032090;28;20186;-70
2022/05/09 09:25:08;;;;;;;11.15;3.50;;;20.80;67.10;;;;;;5033778;28;20217;-70
2022/05/09 09:27:49;;;;;;;15.63;6.90;;;20.90;66.50;;;;;;5055179;28;20178;-71
2022/05/09 09:30:22;;;;;;;6.35;4.07;;;21.00;66.30;;;;;;5055805;28;20182;-71
2022/05/09 09:32:59;;;;;;;9.23;3.05;;;21.00;64.30;;;;;;5055196;28;20179;-70
2022/05/09 09:35:34;;;;;;;4.28;2.97;;;20.90;62.30;;;;;;5055418;28;20259;-70
2022/05/09 09:38:31;;;;;;;7.95;4.20;;;20.90;64.10;;;;;;5055107;28;20177;-70
2022/05/09 09:41:13;;;;;;;8.77;3.63;;;21.00;63.30;;;;;;5054093;28;20692;-70
2022/05/09 09:43:40;;;;;;;5.78;3.17;;;21.00;63.50;;;;;;5054086;28;20182;-70
2022/05/09 09:46:07;;;;;;;6.20;3.55;;;21.10;63.10;;;;;;5053741;28;20230;-69
2022/05/09 09:48:34;;;;;;;6.28;3.70;;;21.30;63.80;;;;;;5053705;28;20178;-71
2022/05/09 09:51:10;;;;;;;6.07;3.40;;;21.40;62.20;;;;;;5053647;28;20190;-71
2022/05/09 09:53:58;;;;;;;9.23;4.05;;;21.50;62.60;;;;;;5052811;28;20173;-75
2022/05/09 09:56:24;;;;;;;6.43;3.40;;;21.40;63.60;;;;;;5053208;28;20210;-69
2022/05/09 09:58:58;;;;;;;5.38;3.10;;;21.40;61.80;;;;;;5053579;28;20227;-70
2022/05/09 10:01:30;;;;;;;4.32;3.30;;;21.60;62.80;;;;;;5053931;28;20169;-70
2022/05/09 10:04:09;;;;;;;5.55;3.20;;;21.60;61.30;;;;;;5054411;28;20558;-70
2022/05/09 10:06:55;;;;;;;7.68;4.03;;;21.60;60.90;;;;;;5053438;28;20228;-70
2022/05/09 10:09:21;;;;;;;10.23;3.20;;;21.70;61.80;;;;;;5054808;28;20702;-70
2022/05/09 10:11:47;;;;;;;6.90;3.47;;;21.60;62.30;;;;;;5053135;28;20192;-70
2022/05/09 10:14:34;;;;;;;10.68;4.22;;;21.70;61.40;;;;;;5054867;28;20182;-70
2022/05/09 10:17:15;;;;;;;7.38;3.65;;;21.90;61.80;;;;;;5054653;28;20216;-70
2022/05/09 10:19:40;;;;;;;4.15;3.10;;;22.20;61.60;;;;;;5055404;28;20206;-70
2022/05/09 10:25:08;;;;;;;8.85;3.10;;;22.00;57.80;;;;;;5056039;28;20192;-69
2022/05/09 10:27:36;;;;;;;3.90;2.65;;;21.70;58.90;;;;;;5054818;28;20202;-70
2022/05/09 10:30:29;;;;;;;6.07;3.10;;;21.70;60.40;;;;;;5054058;28;20178;-70
2022/05/09 10:33:02;;;;;;;3.83;3.30;;;21.90;58.70;;;;;;5053991;28;20224;-71
2022/05/09 10:35:56;;;;;;;7.55;2.90;;;22.10;60.20;;;;;;5052936;28;20229;-70
2022/05/09 10:38:48;;;;;;;4.90;2.90;;;22.40;58.70;;;;;;5053745;28;20174;-70
2022/05/09 10:41:40;;;;;;;5.22;2.88;;;22.50;56.70;;;;;;5047569;28;20556;-69
2022/05/09 10:44:10;;;;;;;3.22;2.65;;;22.60;58.70;;;;;;5054285;28;20166;-70
2022/05/09 10:46:49;;;;;;;5.10;3.10;;;22.50;56.20;;;;;;5054975;28;20187;-70
2022/05/09 10:49:26;;;;;;;7.85;3.55;;;22.60;58.50;;;;;;5054405;28;20170;-70
2022/05/09 10:52:11;;;;;;;4.18;2.97;;;22.80;55.90;;;;;;5055111;28;20178;-69
2022/05/09 10:54:45;;;;;;;4.72;3.15;;;22.90;55.00;;;;;;5054170;28;20205;-69
2022/05/09 10:57:40;;;;;;;8.07;3.30;;;22.90;55.40;;;;;;5055531;28;20671;-69
2022/05/09 11:00:09;;;;;;;4.82;3.70;;;23.10;54.70;;;;;;5044061;28;20224;-71
2022/05/09 11:02:50;;;;;;;4.10;3.05;;;22.80;53.60;;;;;;5037233;28;20202;-71
2022/05/09 11:05:16;;;;;;;6.05;2.70;;;22.90;55.40;;;;;;5037891;28;20177;-70
2022/05/09 11:08:11;;;;;;;4.50;2.75;;;23.30;55.40;;;;;;5056595;28;20174;-70
2022/05/09 11:10:48;;;;;;;6.40;3.08;;;23.70;55.10;;;;;;5055867;28;20244;-71
2022/05/09 11:13:36;;;;;;;7.50;3.10;;;24.10;54.30;;;;;;5057077;28;20161;-71
2022/05/09 11:16:28;;;;;;;6.60;3.10;;;23.90;52.70;;;;;;5055845;28;20692;-70
2022/05/09 11:19:17;;;;;;;3.97;2.90;;;23.70;52.90;;;;;;5055773;28;20184;-70
2022/05/09 11:21:57;;;;;;;3.53;2.50;;;23.50;51.50;;;;;;5056642;28;20216;-70
2022/05/09 11:24:37;;;;;;;4.30;2.95;;;23.50;54.60;;;;;;5055844;28;20675;-70
2022/05/09 11:27:37;;;;;;;5.53;2.97;;;23.60;53.90;;;;;;5055532;28;20664;-70
2022/05/09 11:30:39;;;;;;;5.82;3.00;;;23.30;54.60;;;;;;5055156;28;20208;-70
2022/05/09 11:33:30;;;;;;;3.55;3.00;;;23.10;53.80;;;;;;4978796;28;20242;-71
2022/05/09 11:36:05;;;;;;;5.32;3.17;;;23.10;54.00;;;;;;5040145;28;20352;-71
2022/05/09 11:38:44;;;;;;;5.70;3.00;;;23.00;54.60;;;;;;5055998;28;20170;-71
2022/05/09 11:41:39;;;;;;;4.07;2.90;;;23.00;56.40;;;;;;5054785;28;20237;-70
2022/05/09 11:44:21;;;;;;;6.22;3.20;;;23.10;52.50;;;;;;5055384;28;20178;-70
2022/05/09 11:47:30;;;;;;;5.10;2.92;;;23.30;51.40;;;;;;5055582;28;20193;-70
2022/05/09 11:50:31;;;;;;;3.78;2.80;;;23.30;50.40;;;;;;5054902;28;20659;-70
2022/05/09 11:53:00;;;;;;;6.63;2.95;;;23.60;52.50;;;;;;5012930;28;20182;-70
2022/05/09 11:55:26;;;;;;;4.43;2.70;;;23.40;51.20;;;;;;5036236;28;20215;-70
2022/05/09 11:58:01;;;;;;;5.15;3.33;;;23.70;53.10;;;;;;5054297;28;20189;-70
2022/05/09 12:00:27;;;;;;;4.18;3.35;;;23.70;51.10;;;;;;5055800;28;20197;-72
2022/05/09 12:02:58;;;;;;;6.28;3.25;;;23.70;50.90;;;;;;5055422;28;20216;-70
2022/05/09 12:05:27;;;;;;;5.55;3.50;;;23.60;51.50;;;;;;5054263;28;20194;-71
2022/05/09 12:08:08;;;;;;;5.47;2.97;;;23.50;50.80;;;;;;5054035;28;20236;-71
2022/05/09 12:10:40;;;;;;;7.47;3.15;;;23.60;51.20;;;;;;5054018;28;20289;-71
2022/05/09 12:13:10;;;;;;;6.72;3.20;;;23.70;50.80;;;;;;5053923;28;20228;-71
2022/05/09 12:15:35;;;;;;;26.15;4.50;;;23.80;51.00;;;;;;5054209;28;20673;-71
2022/05/09 12:18:07;;;;;;;6.07;2.90;;;23.90;49.90;;;;;;5054079;28;20189;-70
2022/05/09 12:20:37;;;;;;;3.85;2.63;;;23.90;51.30;;;;;;5053871;28;20209;-70
2022/05/09 12:23:05;;;;;;;3.28;2.53;;;23.90;49.90;;;;;;5054298;28;20221;-70
2022/05/09 12:25:34;;;;;;;4.03;2.92;;;23.70;49.40;;;;;;5054294;28;20212;-70
2022/05/09 12:28:03;;;;;;;4.75;2.65;;;23.70;49.50;;;;;;5053723;28;20178;-77
2022/05/09 12:30:43;;;;;;;4.72;2.97;;;23.70;49.40;;;;;;5053700;28;20193;-70
2022/05/09 12:33:38;;;;;;;4.18;2.80;;;23.60;49.20;;;;;;5053799;28;20193;-71
2022/05/09 12:36:12;;;;;;;6.60;3.05;;;23.10;49.60;;;;;;5054987;28;20193;-70
2022/05/09 12:39:06;;;;;;;6.38;2.67;;;23.10;50.70;;;;;;5055309;28;20180;-70
2022/05/09 12:41:45;;;;;;;3.10;2.80;;;23.10;51.60;;;;;;5048811;28;20198;-70
2022/05/09 12:44:11;;;;;;;5.65;2.70;;;23.10;51.60;;;;;;5055264;28;20169;-71
2022/05/09 12:46:45;;;;;;;3.25;2.95;;;23.20;50.70;;;;;;5053642;28;20210;-71
2022/05/09 12:49:14;;;;;;;3.40;2.72;;;23.20;50.70;;;;;;5053721;28;20173;-71
2022/05/09 12:51:43;;;;;;;14.30;3.00;;;23.20;49.50;;;;;;5053860;28;20186;-71
2022/05/09 12:54:12;;;;;;;4.95;2.95;;;23.10;50.30;;;;;;5053937;28;20186;-71
2022/05/09 12:56:52;;;;;;;2.97;2.67;;;23.10;50.00;;;;;;5053090;28;20202;-70
2022/05/09 12:59:18;;;;;;;2.70;2.50;;;23.20;49.30;;;;;;5054764;28;20221;-70
2022/05/09 13:01:51;;;;;;;5.57;2.80;;;23.20;49.30;;;;;;5054679;28;20231;-70
2022/05/09 13:04:18;;;;;;;4.20;2.80;;;23.20;49.30;;;;;;5053737;28;20166;-71
2022/05/09 13:06:53;;;;;;;3.15;2.60;;;23.20;48.90;;;;;;5052890;28;20198;-70
2022/05/09 13:09:25;;;;;;;3.67;2.63;;;23.10;48.30;;;;;;5052977;28;20217;-70
2022/05/09 13:12:03;;;;;;;4.43;2.72;;;23.20;48.80;;;;;;5053340;28;20221;-70
2022/05/09 13:14:38;;;;;;;4.70;2.75;;;23.20;49.10;;;;;;5053013;28;20235;-71
2022/05/09 13:17:10;;;;;;;12.43;2.88;;;23.20;49.30;;;;;;5052737;28;20240;-72
2022/05/09 13:19:36;;;;;;;7.60;2.58;;;23.40;48.20;;;;;;5052643;28;20209;-71
2022/05/09 13:22:04;;;;;;;2.20;2.03;;;23.60;47.60;;;;;;5052547;28;20182;-70
2022/05/09 13:24:31;;;;;;;2.83;2.10;;;23.70;46.20;;;;;;5052885;28;20186;-70
2022/05/09 13:27:02;;;;;;;2.78;2.42;;;23.80;46.30;;;;;;5052150;28;20202;-70
2022/05/09 13:29:31;;;;;;;4.80;2.33;;;24.00;46.70;;;;;;5053126;28;20556;-70
2022/05/09 13:31:58;;;;;;;2.72;2.30;;;24.10;46.40;;;;;;5052629;28;20388;-70
2022/05/09 13:34:41;;;;;;;2.50;2.10;;;24.20;47.10;;;;;;5053832;28;20316;-71
2022/05/09 13:37:12;;;;;;;4.20;2.47;;;24.20;47.10;;;;;;5052652;28;20679;-70
2022/05/09 13:39:44;;;;;;;6.75;2.80;;;24.20;47.20;;;;;;5052494;28;20202;-70
2022/05/09 13:42:23;;;;;;;4.22;2.20;;;24.20;47.20;;;;;;5052283;28;20194;-70
2022/05/09 13:44:51;;;;;;;3.95;2.47;;;24.30;45.60;;;;;;5053915;28;20182;-71
2022/05/09 13:47:20;;;;;;;3.15;2.50;;;24.30;46.40;;;;;;5054643;28;20202;-71
2022/05/09 13:49:48;;;;;;;3.50;2.50;;;24.30;46.50;;;;;;5055148;28;20178;-71
2022/05/09 13:52:37;;;;;;;7.53;2.67;;;24.20;46.70;;;;;;5053584;28;20192;-71
2022/05/09 13:55:05;;;;;;;5.95;2.50;;;24.20;46.40;;;;;;5052852;28;20268;-71
2022/05/09 13:57:39;;;;;;;2.55;2.20;;;24.20;46.50;;;;;;5052705;28;20185;-70
2022/05/09 14:00:19;;;;;;;4.40;2.35;;;24.10;46.50;;;;;;5052562;28;20341;-71
2022/05/09 14:02:48;;;;;;;3.92;2.40;;;23.90;45.40;;;;;;5054057;28;20172;-71
2022/05/09 14:05:23;;;;;;;2.55;2.20;;;23.80;45.30;;;;;;5053612;28;20185;-71
2022/05/09 14:07:50;;;;;;;2.80;2.30;;;23.60;44.40;;;;;;5052925;28;20177;-71
2022/05/09 14:10:39;;;;;;;3.55;2.30;;;23.60;46.10;;;;;;5053457;28;20202;-72
2022/05/09 14:13:23;;;;;;;2.20;2.00;;;23.60;47.00;;;;;;5053084;28;20185;-71
2022/05/09 14:15:57;;;;;;;2.20;2.00;;;23.50;45.80;;;;;;5054062;28;20198;-71
2022/05/09 14:18:30;;;;;;;2.42;2.00;;;23.50;45.30;;;;;;5052485;28;20185;-71
2022/05/09 14:21:11;;;;;;;2.28;2.08;;;23.50;44.50;;;;;;5052053;28;20687;-71
2022/05/09 14:23:38;;;;;;;2.20;2.00;;;23.50;46.30;;;;;;5052527;28;20174;-70
2022/05/09 14:31:59;;;;;;;2.38;2.03;;;23.50;46.20;;;;;;5055634;28;20170;-71
2022/05/09 14:34:24;;;;;;;6.97;2.30;;;23.70;45.50;;;;;;5057682;28;20625;-71
2022/05/09 14:37:25;;;;;;;3.10;1.92;;;23.70;46.60;;;;;;5055765;28;20197;-70
2022/05/09 14:40:05;;;;;;;2.78;2.15;;;23.80;46.90;;;;;;5057367;28;20249;-71
2022/05/09 14:42:33;;;;;;;5.07;2.20;;;23.70;45.00;;;;;;5056655;28;20193;-70
2022/05/09 14:45:07;;;;;;;3.17;2.17;;;23.70;46.60;;;;;;5055896;28;20257;-70
2022/05/09 14:47:46;;;;;;;3.60;2.45;;;23.70;46.50;;;;;;5055413;28;20181;-70
2022/05/09 14:50:26;;;;;;;2.97;2.00;;;23.70;46.70;;;;;;5056073;28;20170;-70
2022/05/09 14:52:57;;;;;;;4.05;2.28;;;23.70;46.80;;;;;;5055283;28;20176;-71
2022/05/09 14:58:34;;;;;;;2.40;2.05;;;23.30;46.00;;;;;;5056499;28;20304;-70
2022/05/09 15:01:01;;;;;;;5.22;2.03;;;23.20;47.00;;;;;;5055907;28;20205;-70
2022/05/09 15:03:29;;;;;;;2.97;2.10;;;23.20;47.90;;;;;;5055469;28;20545;-70
2022/05/09 15:05:56;;;;;;;3.65;2.30;;;23.20;48.00;;;;;;5056263;28;20209;-70
2022/05/09 15:08:23;;;;;;;2.97;2.10;;;23.30;47.70;;;;;;5054993;28;20178;-70
2022/05/09 15:10:49;;;;;;;2.90;2.20;;;23.20;46.00;;;;;;5054862;28;20226;-70
2022/05/09 15:13:19;;;;;;;2.47;2.00;;;23.20;46.50;;;;;;5055224;28;20269;-71
2022/05/09 15:15:53;;;;;;;2.22;2.05;;;23.20;46.90;;;;;;5056539;28;20669;-71
2022/05/09 15:18:21;;;;;;;3.00;2.30;;;23.20;46.60;;;;;;5056332;28;20170;-71
2022/05/09 15:20:47;;;;;;;4.45;2.30;;;23.20;46.90;;;;;;5054893;28;20214;-71
2022/05/09 15:23:12;;;;;;;5.53;2.28;;;23.10;47.80;;;;;;5055017;28;20551;-71
2022/05/09 15:25:46;;;;;;;5.15;1.98;;;23.10;47.60;;;;;;5055614;28;20193;-71
2022/05/09 15:28:11;;;;;;;4.88;2.00;;;23.10;47.10;;;;;;5055854;28;20167;-70
2022/05/09 15:30:37;;;;;;;3.78;2.00;;;23.10;46.00;;;;;;5055773;28;20185;-70
2022/05/09 15:33:02;;;;;;;5.13;2.40;;;23.10;46.00;;;;;;5056081;28;20216;-70
2022/05/09 15:35:28;;;;;;;2.60;2.05;;;23.00;46.00;;;;;;5054784;28;20247;-70
2022/05/09 15:37:53;;;;;;;3.88;2.17;;;23.00;45.70;;;;;;5055761;28;20178;-71
2022/05/09 15:40:19;;;;;;;3.97;2.20;;;22.90;45.30;;;;;;5056142;28;20676;-71
2022/05/09 15:42:45;;;;;;;5.75;2.17;;;22.90;46.60;;;;;;5054268;28;20182;-71
2022/05/09 15:45:15;;;;;;;2.15;2.03;;;22.80;46.90;;;;;;5055338;28;20178;-71
2022/05/09 15:47:43;;;;;;;3.75;2.38;;;22.70;46.40;;;;;;5055888;28;20170;-71
2022/05/09 15:50:11;;;;;;;3.88;2.30;;;22.70;47.40;;;;;;5056409;28;20197;-70
2022/05/09 15:52:37;;;;;;;2.40;2.20;;;22.60;47.70;;;;;;5054624;28;20178;-69
2022/05/09 15:55:03;;;;;;;3.63;2.55;;;22.60;46.40;;;;;;5054493;28;20538;-72
2022/05/09 15:57:30;;;;;;;4.40;2.13;;;22.50;47.60;;;;;;5054926;28;20627;-69
2022/05/09 16:00:05;;;;;;;2.33;2.10;;;22.50;47.90;;;;;;5054591;28;20665;-69
2022/05/09 16:02:42;;;;;;;5.57;2.15;;;22.40;48.20;;;;;;5055139;28;20224;-69
2022/05/09 16:05:08;;;;;;;2.60;2.22;;;22.30;48.30;;;;;;5055298;28;20502;-70
2022/05/09 16:13:02;;;;;;;5.95;2.30;;;22.10;47.60;;;;;;5055897;28;20165;-69
2022/05/09 16:15:29;;;;;;;2.83;2.25;;;22.10;48.90;;;;;;5053947;28;20198;-70
2022/05/09 16:18:11;;;;;;;2.75;2.13;;;22.00;49.20;;;;;;5054747;28;20232;-69
2022/05/09 16:20:37;;;;;;;3.53;2.15;;;22.00;49.20;;;;;;5053954;28;20202;-69
2022/05/09 16:23:03;;;;;;;2.08;1.98;;;21.90;49.40;;;;;;5053918;28;20182;-69
2022/05/09 16:25:29;;;;;;;2.67;2.03;;;21.80;49.00;;;;;;5054311;28;20197;-69
2022/05/09 16:27:55;;;;;;;2.38;2.17;;;21.80;49.10;;;;;;5053817;28;20177;-69
2022/05/09 16:30:24;;;;;;;5.97;2.42;;;21.80;49.10;;;;;;5054112;28;20178;-69
2022/05/09 16:32:51;;;;;;;2.95;2.00;;;21.80;49.60;;;;;;5054008;28;20186;-69
2022/05/09 16:35:18;;;;;;;2.97;2.25;;;21.70;49.70;;;;;;5053723;28;20232;-69
2022/05/09 16:37:44;;;;;;;4.20;2.05;;;21.60;50.00;;;;;;5053936;28;20252;-69
2022/05/09 16:40:12;;;;;;;2.40;2.20;;;21.60;50.10;;;;;;5054311;28;20221;-69
2022/05/09 16:42:40;;;;;;;2.47;2.25;;;21.50;49.60;;;;;;5053454;28;20181;-69
2022/05/09 16:45:10;;;;;;;4.55;2.50;;;21.40;50.80;;;;;;5053362;28;20173;-69
2022/05/09 16:47:38;;;;;;;3.45;2.30;;;21.40;51.40;;;;;;5054015;28;20166;-69
2022/05/09 16:50:06;;;;;;;3.38;2.25;;;21.30;50.90;;;;;;5053408;28;20189;-69
2022/05/09 16:52:33;;;;;;;6.45;2.40;;;21.30;52.30;;;;;;5053111;28;20649;-69
2022/05/09 16:54:59;;;;;;;2.70;2.47;;;21.20;52.50;;;;;;5054398;28;20228;-70
2022/05/09 16:57:25;;;;;;;2.17;2.05;;;21.20;51.70;;;;;;5054033;28;20190;-69
2022/05/09 16:59:52;;;;;;;3.13;2.35;;;21.10;52.10;;;;;;5053955;28;20198;-69
2022/05/09 17:02:21;;;;;;;4.78;2.30;;;21.00;51.00;;;;;;5053133;28;20587;-69
2022/05/09 17:04:47;;;;;;;5.38;2.30;;;20.90;50.80;;;;;;5053019;28;20184;-69
2022/05/09 17:07:12;;;;;;;2.83;2.30;;;20.80;50.60;;;;;;5053260;28;20190;-69
2022/05/09 17:09:43;;;;;;;2.65;2.13;;;20.80;51.00;;;;;;5053075;28;20216;-69
2022/05/09 17:12:12;;;;;;;4.20;2.20;;;20.70;51.20;;;;;;5054242;28;20159;-69
2022/05/09 17:14:39;;;;;;;4.63;2.25;;;20.70;51.90;;;;;;5053271;28;20182;-69
2022/05/09 17:17:06;;;;;;;2.05;1.90;;;20.60;52.00;;;;;;5052870;28;20285;-69
2022/05/09 17:19:32;;;;;;;2.97;1.92;;;20.50;51.70;;;;;;5054258;28;20238;-69
2022/05/09 17:21:57;;;;;;;2.40;2.20;;;20.50;52.00;;;;;;5053922;28;20546;-69
2022/05/09 17:24:27;;;;;;;4.85;2.30;;;20.50;52.20;;;;;;5052787;28;20200;-69
2022/05/09 17:26:57;;;;;;;2.30;2.10;;;20.50;51.60;;;;;;5053890;28;20182;-69
2022/05/09 17:29:23;;;;;;;3.13;2.15;;;20.50;52.10;;;;;;5053872;28;20170;-69
2022/05/09 17:31:49;;;;;;;2.88;2.20;;;20.50;52.10;;;;;;5053898;28;20178;-69
2022/05/09 17:34:15;;;;;;;6.35;2.33;;;20.40;53.00;;;;;;5053828;28;20583;-69
2022/05/09 17:39:26;;;;;;;3.10;2.15;;;20.30;55.20;;;;;;5054274;28;20250;-69
2022/05/09 17:41:51;;;;;;;5.88;2.28;;;20.20;56.00;;;;;;5052381;28;20170;-69
2022/05/09 17:44:17;;;;;;;4.32;2.35;;;20.20;55.50;;;;;;5053747;28;20264;-69
2022/05/09 17:46:46;;;;;;;4.90;2.40;;;20.10;55.80;;;;;;5052756;28;20205;-69
2022/05/09 17:49:11;;;;;;;2.53;2.10;;;20.00;56.40;;;;;;5052709;28;20171;-69
2022/05/09 17:51:37;;;;;;;4.25;2.50;;;20.00;56.30;;;;;;5052212;28;20174;-69
2022/05/09 17:54:03;;;;;;;3.28;2.22;;;19.90;57.30;;;;;;5052596;28;20214;-69
2022/05/09 17:56:30;;;;;;;4.45;2.40;;;19.80;56.80;;;;;;5052699;28;20198;-69
2022/05/09 17:58:57;;;;;;;3.28;2.30;;;19.70;58.10;;;;;;5052573;28;20241;-69
2022/05/09 18:01:36;;;;;;;3.83;2.20;;;19.60;57.90;;;;;;5052143;28;20209;-69
2022/05/09 18:04:02;;;;;;;2.22;2.03;;;19.50;58.90;;;;;;5053689;28;20159;-69
2022/05/09 18:06:28;;;;;;;15.00;2.45;;;19.40;59.90;;;;;;5051872;28;20190;-69
2022/05/09 18:08:53;;;;;;;6.72;2.25;;;19.40;62.20;;;;;;5052196;28;20265;-69
2022/05/09 18:11:21;;;;;;;10.02;2.55;;;19.30;62.70;;;;;;5052240;28;20182;-68
2022/05/09 18:13:49;;;;;;;25.00;4.03;;;19.30;63.50;;;;;;5054105;28;20167;-70
2022/05/09 18:16:16;;;;;;;96.57;10.38;;;19.10;64.50;;;;;;5053129;28;20198;-70
2022/05/09 18:18:46;;;;;;;165.75;17.13;;;19.00;64.70;;;;;;5054529;28;20167;-71
2022/05/09 18:21:16;;;;;;;152.57;16.55;;;18.90;65.20;;;;;;5053484;28;20240;-71
2022/05/09 18:24:17;;;;;;;136.88;13.60;;;18.80;65.30;;;;;;5052053;28;20249;-69
2022/05/09 18:26:43;;;;;;;63.83;9.50;;;18.70;66.60;;;;;;5052866;28;20205;-69
2022/05/09 18:29:09;;;;;;;36.15;5.82;;;18.60;67.90;;;;;;5052750;28;20190;-69
2022/05/09 18:31:39;;;;;;;38.05;5.30;;;18.60;67.90;;;;;;5053162;28;20233;-69
2022/05/09 18:34:06;;;;;;;37.67;5.28;;;18.60;68.30;;;;;;5051751;28;20249;-70
2022/05/09 18:36:32;;;;;;;23.02;4.15;;;18.50;68.60;;;;;;5052029;28;20664;-70
2022/05/09 18:39:03;;;;;;;29.92;4.78;;;18.50;68.80;;;;;;5052153;28;20261;-70
2022/05/09 18:41:29;;;;;;;24.05;4.13;;;18.40;69.40;;;;;;5051758;28;20275;-70
2022/05/09 18:43:55;;;;;;;9.13;3.40;;;18.30;69.80;;;;;;5051843;28;20268;-70
2022/05/09 18:46:23;;;;;;;9.60;3.17;;;18.20;69.70;;;;;;5052584;28;20190;-70
2022/05/09 18:54:24;;;;;;;7.90;2.70;;;17.90;70.00;;;;;;5054110;28;20166;-71
2022/05/09 18:57:26;;;;;;;3.38;2.53;;;17.80;70.50;;;;;;5052408;28;20205;-71
2022/05/09 18:59:51;;;;;;;6.53;2.75;;;17.60;71.30;;;;;;5053822;28;20555;-75
2022/05/09 19:02:18;;;;;;;10.07;2.90;;;17.60;71.90;;;;;;5052425;28;20182;-70
2022/05/09 19:04:43;;;;;;;7.25;2.83;;;17.40;72.70;;;;;;5052017;28;20178;-70
2022/05/09 19:07:11;;;;;;;9.15;3.53;;;17.30;72.10;;;;;;5051411;28;20205;-75
2022/05/09 19:09:42;;;;;;;5.15;2.70;;;17.20;72.60;;;;;;5051581;28;20292;-70
2022/05/09 19:12:08;;;;;;;4.32;3.10;;;17.20;73.00;;;;;;5051999;28;20198;-70
2022/05/09 19:14:38;;;;;;;3.45;3.00;;;17.00;74.30;;;;;;5052733;28;20212;-70
2022/05/09 19:17:04;;;;;;;3.40;3.10;;;16.80;75.50;;;;;;5053669;28;20189;-70
2022/05/09 19:19:30;;;;;;;5.38;2.83;;;16.70;75.90;;;;;;5056199;28;20216;-70
2022/05/09 19:21:56;;;;;;;4.20;2.50;;;16.60;77.00;;;;;;5055038;28;20178;-70
2022/05/09 19:24:21;;;;;;;2.67;2.47;;;16.50;77.30;;;;;;5055690;28;20181;-70
2022/05/09 19:26:49;;;;;;;5.13;2.58;;;16.40;77.00;;;;;;5055841;28;20194;-70
2022/05/09 19:29:39;;;;;;;8.25;2.60;;;16.30;76.70;;;;;;5055104;28;20181;-70
2022/05/09 19:32:12;;;;;;;5.20;2.60;;;16.30;77.10;;;;;;5056482;28;20147;-70
2022/05/09 19:34:38;;;;;;;4.00;2.65;;;16.20;77.40;;;;;;5055205;28;20625;-70
2022/05/09 19:37:04;;;;;;;5.00;2.72;;;16.20;78.00;;;;;;5054706;28;20256;-70
2022/05/09 19:39:30;;;;;;;5.45;2.92;;;16.10;79.00;;;;;;5054646;28;20210;-72
2022/05/09 19:41:58;;;;;;;6.00;2.45;;;16.00;78.40;;;;;;5054952;28;20542;-71
2022/05/09 19:44:39;;;;;;;5.43;2.83;;;16.00;77.80;;;;;;5054949;28;20283;-71
2022/05/09 19:47:10;;;;;;;6.05;2.92;;;15.90;77.70;;;;;;5055006;28;20198;-71